Time;durP1;ratioP1;P1;durP2;ratioP2;P2;SDS_P1;SDS_P2;PMS_P1;PMS_P2;Temp;Humidity;BMP_temperature;BMP_pressure;BME280_temperature;BME280_humidity;BME280_pressure;Samples;Min_cycle;Max_cycle;Signal;HPM_P1;HPM_P2
2022/06/15 00:01:24;;;;;;;3.83;2.00;;;;;;;16.40;49.86;95150.25;5092626;28;20035;-72
2022/06/15 00:03:50;;;;;;;3.22;1.95;;;;;;;16.47;51.62;95155.72;5092407;28;20047;-72
2022/06/15 00:06:16;;;;;;;7.72;1.80;;;;;;;16.41;50.07;95151.94;5092695;28;20037;-73
2022/06/15 00:08:44;;;;;;;2.38;1.90;;;;;;;16.47;50.88;95151.31;5107975;28;20100;-73
2022/06/15 00:11:37;;;;;;;3.25;1.70;;;;;;;16.47;50.61;95140.81;5092226;28;20413;-73
2022/06/15 00:14:05;;;;;;;3.90;1.85;;;;;;;16.41;50.01;95141.44;5107979;28;20048;-72
2022/06/15 00:16:30;;;;;;;3.83;1.80;;;;;;;16.36;51.94;95137.63;5092536;28;20020;-73
2022/06/15 00:18:56;;;;;;;3.05;1.80;;;;;;;16.40;49.48;95139.78;5110406;28;20032;-72
2022/06/15 00:21:21;;;;;;;6.70;1.80;;;;;;;16.25;50.64;95138.72;5108775;28;20031;-73
2022/06/15 00:23:47;;;;;;;3.25;1.70;;;;;;;16.20;53.60;95148.84;5109424;28;20476;-73
2022/06/15 00:26:13;;;;;;;3.78;1.90;;;;;;;16.14;49.94;95142.41;5109558;28;20042;-73
2022/06/15 00:28:38;;;;;;;4.10;1.92;;;;;;;16.15;48.99;95132.75;5112929;28;20084;-73
2022/06/15 00:31:04;;;;;;;3.60;1.88;;;;;;;16.18;49.48;95132.44;5095960;28;20543;-73
2022/06/15 00:33:29;;;;;;;3.53;1.70;;;;;;;16.17;50.20;95128.16;5112715;28;20015;-73
2022/06/15 00:36:00;;;;;;;4.72;2.03;;;;;;;16.13;50.19;95132.91;5112776;28;20408;-72
2022/06/15 00:38:26;;;;;;;4.95;2.03;;;;;;;16.11;49.81;95139.28;5113018;28;20034;-72
2022/06/15 00:40:52;;;;;;;3.30;1.83;;;;;;;16.03;50.98;95124.31;5112701;28;20035;-74
2022/06/15 00:43:38;;;;;;;2.97;2.00;;;;;;;16.02;51.22;95136.59;5079098;28;20397;-72
2022/06/15 00:46:13;;;;;;;4.07;1.88;;;;;;;16.02;52.12;95139.22;5114020;28;20088;-72
2022/06/15 00:48:38;;;;;;;3.75;2.05;;;;;;;15.94;50.16;95139.16;5112712;28;20035;-72
2022/06/15 00:51:04;;;;;;;5.13;1.98;;;;;;;15.98;52.84;95148.34;5078399;28;20032;-72
2022/06/15 00:53:29;;;;;;;2.17;1.60;;;;;;;15.98;52.65;95152.75;5112331;28;20466;-72
2022/06/15 00:55:54;;;;;;;3.40;1.77;;;;;;;15.96;52.82;95146.84;5095524;28;20043;-72
2022/06/15 00:58:20;;;;;;;2.75;1.77;;;;;;;15.95;50.09;95148.63;5112695;28;20035;-72
2022/06/15 01:00:47;;;;;;;2.50;1.73;;;;;;;15.95;50.09;95155.69;5095791;28;20043;-72
2022/06/15 01:03:12;;;;;;;2.78;1.80;;;;;;;15.90;51.38;95143.03;5113321;28;20409;-72
2022/06/15 01:06:01;;;;;;;3.30;1.63;;;;;;;15.97;51.76;95157.19;5095568;28;20035;-73
2022/06/15 01:08:29;;;;;;;3.75;1.80;;;;;;;15.96;51.01;95154.69;5113550;28;20019;-73
2022/06/15 01:11:32;;;;;;;4.90;1.70;;;;;;;15.92;50.20;95161.22;5112369;28;20092;-73
2022/06/15 01:14:34;;;;;;;5.05;2.03;;;;;;;15.92;51.11;95162.03;5112461;28;20040;-72
2022/06/15 01:17:41;;;;;;;2.47;1.67;;;;;;;15.80;51.15;95137.06;5091444;28;20516;-72
2022/06/15 01:20:36;;;;;;;3.13;1.80;;;;;;;15.83;52.19;95152.47;5105640;28;20034;-72
2022/06/15 01:23:08;;;;;;;3.65;1.80;;;;;;;15.84;53.01;95149.69;5091822;28;20070;-73
2022/06/15 01:25:36;;;;;;;2.83;1.90;;;;;;;15.84;52.38;95157.56;5090647;28;20081;-73
2022/06/15 01:28:38;;;;;;;5.40;1.85;;;;;;;15.70;50.66;95157.28;5092938;28;20465;-72
2022/06/15 01:31:41;;;;;;;3.00;1.90;;;;;;;15.67;49.67;95154.94;5092595;28;20467;-72
2022/06/15 01:34:13;;;;;;;4.25;1.92;;;;;;;15.75;52.20;95149.78;5088364;28;20048;-72
2022/06/15 01:36:45;;;;;;;5.45;2.15;;;;;;;15.64;49.58;95158.66;5074978;28;20103;-72
2022/06/15 01:39:23;;;;;;;3.53;1.85;;;;;;;15.57;48.61;95141.91;5084966;28;20497;-73
2022/06/15 01:42:29;;;;;;;3.05;1.90;;;;;;;15.72;52.81;95157.94;5094216;28;20046;-72
2022/06/15 01:44:58;;;;;;;2.83;1.60;;;;;;;15.75;52.42;95168.94;5073231;28;20060;-72
2022/06/15 01:47:25;;;;;;;5.10;2.00;;;;;;;15.70;50.20;95160.72;5057034;28;20028;-73
2022/06/15 01:49:52;;;;;;;2.53;2.17;;;;;;;15.74;50.95;95156.84;5072920;28;20398;-72
2022/06/15 01:52:19;;;;;;;4.05;2.00;;;;;;;15.80;51.53;95171.13;5092435;28;20090;-73
2022/06/15 01:55:02;;;;;;;2.97;1.67;;;;;;;15.76;51.23;95165.34;5091097;28;20390;-72
2022/06/15 01:57:28;;;;;;;4.18;2.10;;;;;;;15.65;49.99;95162.91;5091158;28;20036;-73
2022/06/15 01:59:54;;;;;;;2.90;1.90;;;;;;;15.72;52.21;95157.94;5110168;28;20033;-73
2022/06/15 02:02:27;;;;;;;5.75;2.03;;;;;;;15.72;51.64;95156.16;5111425;28;20507;-73
2022/06/15 02:05:05;;;;;;;4.00;1.88;;;;;;;15.72;52.15;95160.56;5094156;28;20088;-73
2022/06/15 02:07:50;;;;;;;2.63;1.83;;;;;;;15.61;53.17;95157.16;5112817;28;20129;-72
2022/06/15 02:10:22;;;;;;;4.78;1.80;;;;;;;15.63;51.86;95160.47;5094204;28;20039;-72
2022/06/15 02:13:00;;;;;;;4.15;1.95;;;;;;;15.61;50.70;95158.97;5094490;28;20049;-73
2022/06/15 02:15:25;;;;;;;3.88;1.90;;;;;;;15.60;53.02;95163.38;5077967;28;20065;-72
2022/06/15 02:17:51;;;;;;;7.90;2.17;;;;;;;15.59;54.13;95160.91;5093790;28;20038;-72
2022/06/15 02:20:21;;;;;;;5.32;1.73;;;;;;;15.53;53.74;95169.34;5076429;28;20096;-72
2022/06/15 02:22:46;;;;;;;4.38;1.80;;;;;;;15.49;51.58;95170.59;5077586;28;20023;-72
2022/06/15 02:25:15;;;;;;;3.38;2.13;;;;;;;15.44;52.85;95163.22;5094075;28;20040;-72
2022/06/15 02:27:41;;;;;;;2.88;1.70;;;;;;;15.43;51.71;95172.03;5094173;28;20411;-73
2022/06/15 02:30:15;;;;;;;4.88;2.17;;;;;;;15.42;52.29;95170.41;5076628;28;20055;-72
2022/06/15 02:32:45;;;;;;;2.88;1.88;;;;;;;15.44;54.35;95167.63;5094454;28;20484;-72
2022/06/15 02:35:10;;;;;;;3.00;1.80;;;;;;;15.42;55.69;95162.53;5093618;28;20035;-72
2022/06/15 02:37:36;;;;;;;3.25;1.80;;;;;;;15.40;53.93;95160.06;5093205;28;20515;-72
2022/06/15 02:40:01;;;;;;;3.63;1.92;;;;;;;15.41;53.69;95158.28;5110650;28;20519;-72
2022/06/15 02:42:32;;;;;;;3.22;1.70;;;;;;;15.39;52.81;95147.13;5111920;28;20544;-73
2022/06/15 02:45:00;;;;;;;5.93;1.98;;;;;;;15.39;54.42;95155.00;5094302;28;20553;-72
2022/06/15 02:47:27;;;;;;;3.15;1.77;;;;;;;15.37;54.82;95151.69;5093789;28;20032;-72
2022/06/15 02:49:53;;;;;;;4.13;1.88;;;;;;;15.34;52.04;95158.03;5092443;28;20043;-73
2022/06/15 02:52:20;;;;;;;3.35;1.70;;;;;;;15.30;52.59;95150.66;5093515;28;20039;-73
2022/06/15 02:54:48;;;;;;;4.13;1.90;;;;;;;15.31;52.37;95153.09;5093605;28;20187;-72
2022/06/15 02:57:13;;;;;;;3.88;1.95;;;;;;;15.33;51.46;95159.03;5092969;28;20028;-72
2022/06/15 02:59:39;;;;;;;3.13;1.80;;;;;;;15.29;52.31;95159.44;5093386;28;20428;-72
2022/06/15 03:02:04;;;;;;;4.90;2.38;;;;;;;15.30;50.97;95159.31;5109750;28;20042;-73
2022/06/15 03:04:30;;;;;;;5.88;1.95;;;;;;;15.28;51.78;95166.47;5092522;28;20019;-72
2022/06/15 03:06:55;;;;;;;3.10;2.03;;;;;;;15.19;51.47;95154.28;5111287;28;20059;-72
2022/06/15 03:09:21;;;;;;;3.38;1.88;;;;;;;15.20;51.14;95161.97;5093223;28;20027;-72
2022/06/15 03:11:46;;;;;;;2.70;1.80;;;;;;;15.18;51.43;95163.94;5093356;28;20040;-72
2022/06/15 03:14:14;;;;;;;4.20;2.53;;;;;;;15.20;51.56;95167.22;5093259;28;20054;-72
2022/06/15 03:16:43;;;;;;;5.55;1.95;;;;;;;15.26;50.13;95155.34;5093209;28;20034;-73
2022/06/15 03:19:11;;;;;;;4.22;2.25;;;;;;;15.25;51.99;95163.34;5093609;28;20386;-72
2022/06/15 03:21:36;;;;;;;2.85;1.80;;;;;;;15.23;53.12;95162.66;5089467;28;20028;-73
2022/06/15 03:24:02;;;;;;;4.07;1.80;;;;;;;15.28;50.29;95165.66;5089599;28;20113;-72
2022/06/15 03:26:27;;;;;;;3.33;1.85;;;;;;;15.27;51.92;95151.75;5090944;28;20077;-72
2022/06/15 03:28:53;;;;;;;3.63;1.80;;;;;;;15.35;51.32;95157.09;5089704;28;20032;-72
2022/06/15 03:31:18;;;;;;;5.07;2.20;;;;;;;15.38;52.23;95164.63;5111968;28;20051;-72
2022/06/15 03:33:44;;;;;;;5.05;1.85;;;;;;;15.40;55.61;95160.06;5109977;28;20542;-72
2022/06/15 03:36:09;;;;;;;4.07;1.92;;;;;;;15.47;56.27;95168.16;5109753;28;20416;-72
2022/06/15 03:38:35;;;;;;;3.67;1.90;;;;;;;15.53;53.79;95162.31;5109883;28;20118;-72
2022/06/15 03:41:00;;;;;;;4.15;2.00;;;;;;;15.63;55.89;95175.34;5111119;28;20031;-72
2022/06/15 03:43:25;;;;;;;3.65;1.90;;;;;;;15.68;57.61;95172.28;5110717;28;20024;-72
2022/06/15 03:45:51;;;;;;;6.00;2.10;;;;;;;15.63;57.35;95177.97;5109960;28;20036;-72
2022/06/15 03:48:16;;;;;;;4.88;1.90;;;;;;;15.64;57.44;95169.13;5109928;28;20024;-72
2022/06/15 03:50:42;;;;;;;5.57;1.92;;;;;;;15.61;58.70;95182.53;5111050;28;20077;-72
2022/06/15 03:53:08;;;;;;;3.28;2.00;;;;;;;15.59;59.56;95181.84;5111015;28;20065;-72
2022/06/15 03:55:34;;;;;;;6.93;2.50;;;;;;;15.76;59.04;95181.06;5093012;28;20127;-72
2022/06/15 03:58:00;;;;;;;6.43;2.33;;;;;;;15.85;57.20;95182.78;5109366;28;20043;-73
2022/06/15 04:00:27;;;;;;;5.57;2.35;;;;;;;15.95;57.84;95185.31;5109919;28;20036;-72
2022/06/15 04:02:53;;;;;;;2.90;1.95;;;;;;;15.89;58.58;95183.31;5095036;28;20630;-73
2022/06/15 04:05:20;;;;;;;3.03;2.47;;;;;;;15.95;59.15;95177.47;5096282;28;20036;-72
2022/06/15 04:10:30;;;;;;;6.90;3.42;;;;;;;17.10;56.95;95191.31;5113778;28;20035;-73
2022/06/15 04:12:55;;;;;;;5.43;3.15;;;;;;;17.80;55.67;95185.78;5096210;28;20027;-73
2022/06/15 04:15:21;;;;;;;5.03;2.70;;;;;;;18.47;53.86;95175.09;5113628;28;20061;-73
2022/06/15 04:17:46;;;;;;;4.90;2.70;;;;;;;19.20;52.52;95193.38;5113506;28;20031;-73
2022/06/15 04:20:32;;;;;;;8.60;2.20;;;;;;;19.80;50.42;95175.28;5114635;28;20031;-73
2022/06/15 04:23:01;;;;;;;3.50;2.03;;;;;;;20.60;45.16;95182.75;5092874;28;20467;-73
2022/06/15 04:25:28;;;;;;;5.25;2.50;;;;;;;21.37;43.16;95185.06;5089639;28;20032;-73
2022/06/15 04:27:54;;;;;;;3.85;2.78;;;;;;;21.91;41.95;95180.34;5112878;28;20031;-73
2022/06/15 04:30:19;;;;;;;4.93;2.03;;;;;;;22.57;41.26;95186.28;5090438;28;20190;-73
2022/06/15 04:32:45;;;;;;;5.10;2.60;;;;;;;23.09;37.81;95194.78;5102370;27;20576;-73
2022/06/15 04:35:10;;;;;;;3.72;2.40;;;;;;;23.30;36.72;95192.03;5114906;27;20070;-73
2022/06/15 04:37:37;;;;;;;5.45;2.40;;;;;;;23.75;36.82;95195.09;5093896;28;20102;-73
2022/06/15 04:40:04;;;;;;;5.68;2.50;;;;;;;24.14;34.88;95198.06;5106355;28;20042;-73
2022/06/15 04:42:30;;;;;;;3.97;2.22;;;;;;;24.27;36.05;95190.94;5112115;28;20075;-73
2022/06/15 04:44:55;;;;;;;4.40;2.60;;;;;;;23.87;35.05;95197.97;5113848;27;20055;-74
2022/06/15 04:47:21;;;;;;;3.50;2.40;;;;;;;23.19;35.68;95197.91;5113375;28;20041;-73
2022/06/15 04:49:46;;;;;;;5.40;2.40;;;;;;;22.95;37.18;95193.84;5078168;28;20493;-73
2022/06/15 04:52:12;;;;;;;5.03;2.50;;;;;;;22.57;37.64;95186.28;5113502;28;20038;-73
2022/06/15 04:54:37;;;;;;;4.80;2.70;;;;;;;22.70;38.20;95191.63;5113552;28;20027;-73
2022/06/15 04:57:03;;;;;;;6.45;2.72;;;;;;;22.52;37.77;95193.97;5094168;27;20409;-72
2022/06/15 04:59:29;;;;;;;3.83;2.50;;;;;;;22.39;38.92;95201.78;5092516;27;20623;-72
2022/06/15 05:01:55;;;;;;;3.17;2.45;;;;;;;22.24;38.61;95200.03;5111595;27;20023;-73
2022/06/15 05:04:21;;;;;;;8.25;2.83;;;;;;;22.11;38.73;95207.81;5093260;28;20442;-71
2022/06/15 05:06:47;;;;;;;4.07;2.58;;;;;;;21.77;39.71;95211.94;5104354;28;20027;-72
2022/06/15 05:09:13;;;;;;;6.30;2.80;;;;;;;21.65;39.78;95208.16;5079728;28;20063;-74
2022/06/15 05:11:39;;;;;;;4.03;2.67;;;;;;;21.61;40.13;95212.97;5076869;28;20511;-71
2022/06/15 05:14:04;;;;;;;6.38;2.90;;;;;;;21.46;40.20;95200.81;5114054;27;20027;-74
2022/06/15 05:16:30;;;;;;;4.50;2.70;;;;;;;21.56;40.43;95214.53;5095032;28;20489;-75
2022/06/15 05:18:56;;;;;;;3.45;2.70;;;;;;;21.33;40.90;95219.91;5094261;28;20028;-73
2022/06/15 05:21:21;;;;;;;5.20;2.70;;;;;;;21.28;41.35;95220.44;5094847;28;20035;-73
2022/06/15 05:23:47;;;;;;;6.43;2.92;;;;;;;20.71;42.09;95213.16;5111591;27;20073;-72
2022/06/15 05:26:12;;;;;;;5.03;2.78;;;;;;;20.43;43.52;95224.25;5093782;28;20036;-73
2022/06/15 05:28:40;;;;;;;4.15;2.72;;;;;;;20.36;42.54;95218.03;5076270;28;20026;-72
2022/06/15 05:31:11;;;;;;;6.07;2.50;;;;;;;20.09;43.43;95222.06;5075397;28;20044;-75
2022/06/15 05:33:40;;;;;;;5.63;2.65;;;;;;;19.95;44.44;95228.09;5109167;28;20028;-74
2022/06/15 05:36:07;;;;;;;4.97;2.80;;;;;;;19.83;42.82;95222.38;5089350;28;20413;-74
2022/06/15 05:38:33;;;;;;;6.55;2.83;;;;;;;19.63;44.59;95227.25;5090557;28;20032;-74
2022/06/15 05:40:59;;;;;;;7.40;2.42;;;;;;;19.50;42.85;95222.53;5107966;28;20040;-73
2022/06/15 05:43:24;;;;;;;4.65;2.72;;;;;;;19.51;43.16;95226.00;5110931;28;20024;-73
2022/06/15 05:45:49;;;;;;;4.63;2.55;;;;;;;19.56;43.57;95221.84;5110991;28;20405;-79
2022/06/15 05:48:15;;;;;;;5.05;2.85;;;;;;;19.67;44.81;95227.75;5094499;28;20421;-74
2022/06/15 05:50:40;;;;;;;4.45;2.47;;;;;;;19.85;43.24;95226.47;5111988;28;20031;-81
2022/06/15 05:53:06;;;;;;;5.95;2.60;;;;;;;19.96;42.96;95220.00;5108775;27;20053;-75
2022/06/15 05:55:31;;;;;;;5.43;2.90;;;;;;;20.13;44.21;95227.78;5104462;27;20023;-76
2022/06/15 05:57:57;;;;;;;7.50;2.72;;;;;;;20.28;44.21;95226.88;5105510;27;20043;-74
2022/06/15 06:00:25;;;;;;;5.30;2.63;;;;;;;20.33;44.61;95228.94;5121610;27;20030;-74
2022/06/15 06:02:51;;;;;;;4.88;2.30;;;;;;;20.38;42.98;95226.59;5131468;27;20038;-74
2022/06/15 06:05:16;;;;;;;3.58;2.40;;;;;;;20.42;42.64;95211.22;5096066;28;20028;-76
2022/06/15 06:07:42;;;;;;;4.95;2.10;;;;;;;20.73;39.96;95230.47;5112578;27;20384;-77
2022/06/15 06:10:08;;;;;;;4.93;1.95;;;;;;;20.83;40.10;95224.91;5126807;27;20019;-77
2022/06/15 06:12:33;;;;;;;3.83;1.95;;;;;;;21.05;39.38;95232.94;5114482;27;20027;-77
2022/06/15 06:15:01;;;;;;;4.57;2.03;;;;;;;21.13;39.73;95241.59;5106241;28;20032;-76
2022/06/15 06:17:26;;;;;;;2.90;1.80;;;;;;;21.29;39.75;95235.31;5109117;28;20026;-77
2022/06/15 06:19:52;;;;;;;3.63;1.98;;;;;;;21.44;38.75;95239.81;5109477;28;20031;-76
2022/06/15 06:22:17;;;;;;;4.78;2.15;;;;;;;21.57;37.39;95243.44;5091478;28;20023;-76
2022/06/15 06:24:43;;;;;;;4.75;2.22;;;;;;;21.58;37.22;95242.41;5075410;28;20032;-77
2022/06/15 06:27:11;;;;;;;4.55;1.80;;;;;;;21.61;37.10;95233.31;5094171;28;20031;-76
2022/06/15 06:29:37;;;;;;;6.78;2.05;;;;;;;21.67;37.17;95240.50;5093414;28;20055;-77
2022/06/15 06:32:02;;;;;;;3.50;2.10;;;;;;;21.70;37.80;95237.47;5110675;28;20057;-77
2022/06/15 06:34:30;;;;;;;4.25;1.90;;;;;;;21.85;37.53;95240.09;5109475;28;20036;-77
2022/06/15 06:36:56;;;;;;;4.72;1.90;;;;;;;21.91;36.57;95243.81;5093639;28;20100;-77
2022/06/15 06:39:26;;;;;;;4.78;1.92;;;;;;;21.97;35.78;95235.13;5073463;28;20538;-77
2022/06/15 06:41:55;;;;;;;2.97;1.80;;;;;;;22.05;37.00;95232.38;5076733;28;20394;-77
2022/06/15 06:44:20;;;;;;;2.95;1.92;;;;;;;22.08;37.47;95224.88;5093171;28;20110;-73
2022/06/15 06:46:47;;;;;;;4.00;2.10;;;;;;;22.13;36.73;95224.31;5110426;28;20031;-73
2022/06/15 06:49:13;;;;;;;4.18;1.90;;;;;;;22.23;36.04;95224.88;5094077;28;20032;-74
2022/06/15 06:51:38;;;;;;;2.50;1.80;;;;;;;22.29;35.50;95224.09;5072263;28;20036;-74
2022/06/15 06:54:04;;;;;;;3.70;2.10;;;;;;;22.38;35.85;95226.63;5089938;28;20032;-74
2022/06/15 06:56:30;;;;;;;3.78;2.00;;;;;;;22.48;36.74;95235.03;5090113;28;20123;-74
2022/06/15 06:58:55;;;;;;;6.45;1.83;;;;;;;22.55;35.94;95219.22;5089993;28;20525;-74
2022/06/15 07:01:21;;;;;;;2.65;1.70;;;;;;;22.68;35.35;95230.75;5090054;28;20024;-74
2022/06/15 07:03:47;;;;;;;4.53;1.77;;;;;;;22.65;35.12;95228.50;5089866;28;20485;-74
2022/06/15 07:06:13;;;;;;;5.00;1.67;;;;;;;22.62;35.43;95228.03;5072979;28;20501;-74
2022/06/15 07:08:39;;;;;;;3.88;2.00;;;;;;;22.55;35.49;95224.53;5089877;28;20020;-74
2022/06/15 07:11:12;;;;;;;5.95;1.98;;;;;;;22.63;36.14;95237.63;5089663;28;20555;-74
2022/06/15 07:13:38;;;;;;;3.95;1.85;;;;;;;22.70;36.12;95231.34;5089792;28;20382;-74
2022/06/15 07:16:08;;;;;;;5.60;1.95;;;;;;;22.73;36.05;95233.66;5088844;28;20111;-74
2022/06/15 07:18:33;;;;;;;4.95;1.83;;;;;;;22.73;36.00;95215.13;5106186;28;20028;-74
2022/06/15 07:21:03;;;;;;;4.25;1.80;;;;;;;22.85;35.65;95236.56;5072744;28;20524;-74
2022/06/15 07:23:29;;;;;;;2.83;1.73;;;;;;;22.89;36.35;95237.00;5090056;28;20024;-74
2022/06/15 07:25:54;;;;;;;2.97;1.50;;;;;;;22.97;35.45;95235.06;5089836;28;20791;-74
2022/06/15 07:28:20;;;;;;;5.35;1.90;;;;;;;23.13;36.37;95228.66;5089761;28;20024;-74
2022/06/15 07:30:45;;;;;;;5.20;1.70;;;;;;;23.19;35.08;95227.84;5089481;28;20059;-74
2022/06/15 07:33:10;;;;;;;3.55;1.60;;;;;;;23.32;36.43;95232.44;5090849;28;20072;-74
2022/06/15 07:35:38;;;;;;;4.53;1.80;;;;;;;23.42;35.53;95216.97;5091318;28;20459;-74
2022/06/15 07:38:04;;;;;;;4.47;1.90;;;;;;;23.55;34.25;95226.81;5095029;28;20066;-74
2022/06/15 07:40:29;;;;;;;3.92;1.90;;;;;;;23.54;34.92;95227.84;5093938;28;20066;-75
2022/06/15 07:42:55;;;;;;;4.05;1.95;;;;;;;23.61;34.93;95223.38;5094932;28;20537;-75
2022/06/15 07:45:21;;;;;;;3.53;1.90;;;;;;;23.79;35.18;95217.56;5093740;28;20040;-75
2022/06/15 07:50:31;;;;;;;3.40;2.00;;;;;;;23.62;34.86;95222.38;5108301;28;20124;-75
2022/06/15 07:52:56;;;;;;;2.70;1.77;;;;;;;23.57;34.11;95229.28;5094780;28;20062;-74
2022/06/15 07:55:24;;;;;;;5.95;2.03;;;;;;;23.59;35.59;95233.34;5093663;28;20101;-74
2022/06/15 07:57:50;;;;;;;6.55;1.70;;;;;;;23.63;35.13;95237.25;5093439;28;20020;-75
2022/06/15 08:00:16;;;;;;;3.17;1.60;;;;;;;23.74;34.41;95240.41;5093539;28;20040;-74
2022/06/15 08:02:41;;;;;;;3.88;1.90;;;;;;;23.81;35.12;95238.56;5093315;28;20052;-75
2022/06/15 08:05:08;;;;;;;2.63;1.60;;;;;;;23.77;35.72;95224.09;5093377;28;20406;-74
2022/06/15 08:07:34;;;;;;;3.10;1.83;;;;;;;23.98;34.10;95239.03;5093282;28;20138;-74
2022/06/15 08:10:00;;;;;;;3.92;1.98;;;;;;;23.97;34.03;95238.22;5094517;28;20105;-74
2022/06/15 08:12:25;;;;;;;3.22;1.55;;;;;;;23.91;33.88;95231.06;5094478;28;20024;-75
2022/06/15 08:14:53;;;;;;;4.68;1.90;;;;;;;23.94;36.00;95235.97;5093098;28;20043;-74
2022/06/15 08:17:26;;;;;;;3.47;1.85;;;;;;;24.05;36.06;95231.91;5094319;28;20493;-75
2022/06/15 08:20:05;;;;;;;4.28;1.63;;;;;;;24.14;35.11;95229.91;5092930;28;20491;-75
2022/06/15 08:22:33;;;;;;;3.22;1.80;;;;;;;24.15;35.73;95232.34;5109372;28;20103;-75
2022/06/15 08:24:59;;;;;;;4.13;1.80;;;;;;;24.23;34.73;95239.28;5109556;28;20042;-74
2022/06/15 08:27:25;;;;;;;3.03;1.92;;;;;;;24.33;34.07;95239.72;5075949;28;20028;-75
2022/06/15 08:29:50;;;;;;;2.72;1.70;;;;;;;24.29;33.21;95241.13;5092516;28;20044;-74
2022/06/15 08:32:16;;;;;;;4.07;1.60;;;;;;;24.34;33.85;95236.03;5094080;28;20024;-75
2022/06/15 08:34:42;;;;;;;4.15;1.80;;;;;;;24.38;34.13;95234.63;5109716;28;20039;-74
2022/06/15 08:37:10;;;;;;;3.45;1.70;;;;;;;24.38;34.48;95234.63;5092735;28;20029;-75
2022/06/15 08:39:35;;;;;;;2.95;1.52;;;;;;;24.39;33.44;95235.44;5109466;28;20032;-75
2022/06/15 08:42:07;;;;;;;4.25;1.70;;;;;;;24.41;31.57;95242.19;5092578;28;20020;-75
2022/06/15 08:45:11;;;;;;;3.25;1.80;;;;;;;24.39;32.93;95238.91;5093914;28;20043;-75
2022/06/15 08:47:44;;;;;;;2.90;1.80;;;;;;;24.36;34.28;95233.19;5108638;28;20031;-74
2022/06/15 08:50:25;;;;;;;2.88;1.80;;;;;;;24.41;34.22;95233.41;5109408;28;20032;-74
2022/06/15 08:53:03;;;;;;;4.63;1.60;;;;;;;24.45;32.01;95224.84;5109338;28;20047;-75
2022/06/15 08:55:55;;;;;;;5.25;1.95;;;;;;;24.43;34.75;95223.38;5092530;28;20075;-74
2022/06/15 08:58:41;;;;;;;3.20;1.70;;;;;;;24.50;33.14;95230.38;5092024;28;20064;-74
2022/06/15 09:01:20;;;;;;;3.70;1.88;;;;;;;24.70;33.35;95240.19;5106803;28;20040;-74
2022/06/15 09:04:07;;;;;;;3.22;1.52;;;;;;;24.75;31.95;95235.91;5093449;28;20508;-74
2022/06/15 09:06:57;;;;;;;3.88;1.50;;;;;;;24.79;31.15;95238.13;5092057;28;20047;-74
2022/06/15 09:09:29;;;;;;;4.00;1.67;;;;;;;24.75;31.89;95233.25;5092045;28;20130;-74
2022/06/15 09:15:29;;;;;;;2.83;1.60;;;;;;;24.73;30.31;95239.78;5104237;28;20039;-74
2022/06/15 09:17:55;;;;;;;;;;;;;;;24.75;31.51;95238.56;5109412;28;20028;-74
2022/06/15 09:20:24;;;;;;;4.55;1.80;;;;;;;24.65;33.21;95234.66;5091892;28;19916;-74
2022/06/15 09:22:59;;;;;;;4.28;2.13;;;;;;;24.72;32.49;95228.34;5108536;28;20082;-74
2022/06/15 09:25:35;;;;;;;3.72;1.90;;;;;;;24.79;31.31;95233.63;5093300;28;20104;-74
2022/06/15 09:28:10;;;;;;;2.38;1.67;;;;;;;24.78;32.54;95237.34;5091702;28;20101;-74
2022/06/15 09:30:38;;;;;;;2.65;1.70;;;;;;;24.84;32.76;95244.47;5107829;28;20048;-74
2022/06/15 09:33:08;;;;;;;5.22;1.63;;;;;;;24.95;33.91;95243.84;5091604;28;20027;-74
2022/06/15 09:35:46;;;;;;;4.70;1.80;;;;;;;25.05;32.51;95239.97;5108307;28;20043;-75
2022/06/15 09:38:13;;;;;;;2.88;1.77;;;;;;;25.11;32.34;95239.97;5108171;28;20584;-74
2022/06/15 09:41:09;;;;;;;2.97;1.50;;;;;;;25.00;30.18;95234.47;5091379;28;20111;-74
2022/06/15 09:43:53;;;;;;;3.97;1.92;;;;;;;25.04;32.37;95246.28;5091160;28;20090;-74
2022/06/15 09:46:42;;;;;;;3.55;1.70;;;;;;;24.96;33.33;95234.88;5092689;28;20107;-74
2022/06/15 09:49:29;;;;;;;3.83;1.75;;;;;;;25.04;31.68;95238.31;5108342;28;20035;-74
2022/06/15 09:52:21;;;;;;;4.00;1.83;;;;;;;25.08;31.61;95245.69;5091135;28;20040;-74
2022/06/15 09:55:07;;;;;;;3.20;1.95;;;;;;;25.11;31.38;95228.53;5090978;28;20092;-74
2022/06/15 09:57:33;;;;;;;3.97;1.80;;;;;;;25.07;32.29;95227.28;5091236;28;20031;-74
2022/06/15 10:00:02;;;;;;;3.30;1.70;;;;;;;25.12;33.19;95235.44;5073179;28;20036;-74
2022/06/15 10:02:33;;;;;;;2.65;1.75;;;;;;;24.95;30.37;95224.44;5091146;28;20486;-74
2022/06/15 10:04:59;;;;;;;3.88;1.65;;;;;;;24.87;30.68;95220.16;5074117;28;20452;-74
2022/06/15 10:07:35;;;;;;;2.40;1.70;;;;;;;24.81;31.76;95223.63;5090985;28;20092;-74
2022/06/15 10:10:25;;;;;;;4.50;1.90;;;;;;;24.87;33.09;95220.16;5090946;28;20039;-74
2022/06/15 10:12:59;;;;;;;3.88;1.98;;;;;;;25.04;33.36;95217.88;5090938;28;20043;-74
2022/06/15 10:15:53;;;;;;;5.30;1.88;;;;;;;25.10;32.14;95219.72;5107005;28;20402;-74
2022/06/15 10:18:33;;;;;;;5.70;2.00;;;;;;;25.00;32.76;95207.88;5091751;28;20047;-74
2022/06/15 10:21:13;;;;;;;5.60;2.20;;;;;;;25.08;32.38;95223.63;5090669;28;20043;-74
2022/06/15 10:24:09;;;;;;;2.85;1.73;;;;;;;25.14;33.03;95220.13;5091897;28;20077;-74
2022/06/15 10:26:43;;;;;;;3.10;1.90;;;;;;;25.13;32.27;95207.84;5091877;28;20024;-75
2022/06/15 10:29:15;;;;;;;5.65;1.98;;;;;;;25.24;33.42;95217.91;5073492;28;20046;-74
2022/06/15 10:31:42;;;;;;;5.97;2.00;;;;;;;25.21;32.79;95210.31;5091707;28;20528;-75
2022/06/15 10:34:22;;;;;;;3.53;1.80;;;;;;;25.22;33.00;95221.78;5073632;28;20135;-74
2022/06/15 10:36:52;;;;;;;3.28;1.95;;;;;;;25.27;30.78;95221.94;5090384;28;20028;-74
2022/06/15 10:39:24;;;;;;;6.75;2.03;;;;;;;25.16;31.39;95218.13;5090528;28;20044;-74
2022/06/15 10:41:50;;;;;;;2.47;1.70;;;;;;;25.20;31.66;95214.00;5091458;28;20028;-74
2022/06/15 10:44:29;;;;;;;2.42;1.90;;;;;;;25.19;31.50;95212.38;5090210;28;20417;-74
2022/06/15 10:47:02;;;;;;;3.83;1.87;;;;;;;25.19;32.28;95196.44;5090317;28;20036;-74
2022/06/15 10:49:30;;;;;;;3.13;1.70;;;;;;;25.26;31.10;95210.50;5090254;28;20031;-74
2022/06/15 10:51:56;;;;;;;3.00;1.75;;;;;;;25.22;31.05;95198.66;5090066;28;20054;-74
2022/06/15 10:54:29;;;;;;;5.85;1.90;;;;;;;25.32;31.49;95203.53;5090239;28;20486;-74
2022/06/15 11:02:31;;;;;;;3.30;1.95;;;;;;;25.12;31.23;95201.72;5090513;28;20063;-74
2022/06/15 11:04:58;;;;;;;3.53;2.05;;;;;;;25.21;32.37;95194.34;5106933;28;20036;-74
2022/06/15 11:07:25;;;;;;;3.35;1.90;;;;;;;25.24;32.03;95196.63;5089885;28;20035;-74
2022/06/15 11:10:07;;;;;;;3.13;1.70;;;;;;;25.25;31.63;95195.59;5106794;28;20028;-74
2022/06/15 11:12:46;;;;;;;3.70;1.70;;;;;;;25.39;32.98;95197.19;5089615;28;20446;-74
2022/06/15 11:15:19;;;;;;;2.40;1.75;;;;;;;25.49;30.45;95195.91;5089893;28;20028;-74
2022/06/15 11:18:03;;;;;;;3.63;1.85;;;;;;;25.39;29.14;95185.72;5089759;28;20086;-74
2022/06/15 11:20:49;;;;;;;3.22;1.90;;;;;;;25.22;28.74;95190.69;5090028;28;20028;-74
2022/06/15 11:23:22;;;;;;;4.35;1.90;;;;;;;25.18;29.58;95189.47;5089674;28;20039;-74
2022/06/15 11:25:55;;;;;;;4.32;1.95;;;;;;;25.23;29.86;95180.88;5089833;28;20473;-74
2022/06/15 11:28:28;;;;;;;3.10;2.00;;;;;;;25.23;30.35;95181.69;5106601;28;20101;-74
2022/06/15 11:31:18;;;;;;;2.75;1.90;;;;;;;25.34;32.32;95183.69;5089278;28;20425;-74
2022/06/15 11:34:00;;;;;;;5.40;1.92;;;;;;;25.24;32.10;95183.34;5104081;28;20418;-75
2022/06/15 11:36:28;;;;;;;4.78;2.20;;;;;;;25.24;31.77;95182.50;5089742;28;20038;-74
2022/06/15 11:38:59;;;;;;;3.17;2.20;;;;;;;25.24;30.54;95183.34;5089455;28;20034;-74
2022/06/15 11:41:44;;;;;;;3.50;2.17;;;;;;;25.25;30.54;95184.16;5072760;28;20072;-74
2022/06/15 11:44:19;;;;;;;3.28;1.90;;;;;;;25.32;29.02;95169.78;5089603;28;20025;-74
2022/06/15 11:46:57;;;;;;;4.55;1.88;;;;;;;25.37;30.94;95171.81;5106365;28;20083;-74
2022/06/15 11:49:41;;;;;;;2.85;1.88;;;;;;;25.48;30.28;95167.69;5105501;28;20115;-74
2022/06/15 11:52:44;;;;;;;4.13;1.90;;;;;;;25.45;31.25;95181.41;5091085;28;20093;-74
2022/06/15 11:55:37;;;;;;;5.28;2.10;;;;;;;25.38;31.53;95168.13;5089448;28;20516;-74
2022/06/15 11:58:27;;;;;;;2.75;1.80;;;;;;;25.45;30.20;95176.09;5105231;28;20028;-74
2022/06/15 12:00:57;;;;;;;5.47;2.03;;;;;;;25.17;30.02;95167.38;5089488;28;20028;-74
2022/06/15 12:03:38;;;;;;;3.78;1.80;;;;;;;25.27;32.32;95171.44;5106235;28;20119;-74
2022/06/15 12:06:23;;;;;;;;;;;;;;;25.40;32.42;95166.91;5091049;28;20036;-74